createdAt,value
2019-05-11T00:00:39.266Z,13.33
2019-05-11T00:03:12.620Z,13.50
2019-05-11T00:05:46.532Z,14.10
2019-05-11T00:08:19.559Z,13.90
2019-05-11T00:10:54.372Z,12.73
2019-05-11T00:13:29.594Z,13.60
2019-05-11T00:16:05.308Z,14.87
2019-05-11T00:18:38.343Z,14.10
2019-05-11T00:21:12.301Z,16.27
2019-05-11T00:23:46.656Z,17.27
2019-05-11T00:26:19.705Z,20.57
2019-05-11T00:28:53.150Z,20.60
2019-05-11T00:31:25.866Z,22.23
2019-05-11T00:33:58.722Z,23.80
2019-05-11T00:36:32.694Z,24.20
2019-05-11T00:39:10.705Z,25.27
2019-05-11T00:41:46.460Z,25.57
2019-05-11T00:44:19.826Z,28.55
2019-05-11T00:46:52.903Z,26.53
2019-05-11T00:49:26.065Z,28.00
2019-05-11T00:51:59.086Z,25.40
2019-05-11T00:54:33.007Z,23.17
2019-05-11T00:57:05.726Z,25.60
2019-05-11T00:59:43.326Z,28.17
2019-05-11T01:02:16.216Z,28.20
2019-05-11T01:04:52.457Z,26.47
2019-05-11T01:07:25.074Z,24.50
2019-05-11T01:10:00.477Z,23.43
2019-05-11T01:12:37.849Z,24.27
2019-05-11T01:15:12.476Z,25.57
2019-05-11T01:17:47.197Z,24.93
2019-05-11T01:20:22.994Z,23.50
2019-05-11T01:22:56.479Z,24.87
2019-05-11T01:25:31.312Z,22.97
2019-05-11T01:28:07.002Z,23.10
2019-05-11T01:30:43.082Z,26.70
2019-05-11T01:33:16.759Z,24.90
2019-05-11T01:35:53.102Z,23.80
2019-05-11T01:38:25.922Z,23.40
2019-05-11T01:41:03.023Z,21.23
2019-05-11T01:43:35.947Z,22.10
2019-05-11T01:46:10.277Z,20.43
2019-05-11T01:48:45.001Z,20.40
2019-05-11T01:51:17.783Z,20.77
2019-05-11T01:53:51.504Z,24.45
2019-05-11T01:56:26.878Z,22.50
2019-05-11T01:59:01.341Z,22.03
2019-05-11T02:01:35.458Z,21.40
2019-05-11T02:04:11.588Z,23.03
2019-05-11T02:06:48.955Z,25.50
2019-05-11T02:09:27.157Z,22.97
2019-05-11T02:11:59.963Z,23.20
2019-05-11T02:14:33.434Z,25.03
2019-05-11T02:17:07.781Z,25.07
2019-05-11T02:19:41.581Z,25.47
2019-05-11T02:22:15.423Z,29.30
2019-05-11T02:24:48.120Z,25.53
2019-05-11T02:27:20.829Z,28.17
2019-05-11T02:29:53.688Z,34.47
2019-05-11T02:32:26.421Z,29.97
2019-05-11T02:34:58.984Z,35.37
2019-05-11T02:37:31.590Z,33.30
2019-05-11T02:40:05.610Z,33.07
2019-05-11T02:42:39.864Z,32.03
2019-05-11T02:45:38.114Z,30.50
2019-05-11T02:48:11.557Z,28.37
2019-05-11T02:50:45.048Z,27.97
2019-05-11T02:53:19.317Z,32.42
2019-05-11T02:55:52.720Z,27.40
2019-05-11T02:58:25.400Z,24.97
2019-05-11T03:00:57.933Z,27.63
2019-05-11T03:03:30.551Z,31.03
2019-05-11T03:06:03.128Z,25.70
2019-05-11T03:08:35.682Z,30.00
2019-05-11T03:11:08.310Z,28.07
2019-05-11T03:13:41.830Z,27.47
2019-05-11T03:16:14.424Z,25.27
2019-05-11T03:18:47.033Z,27.57
2019-05-11T03:21:19.975Z,27.40
2019-05-11T03:23:52.588Z,27.67
2019-05-11T03:26:25.165Z,28.47
2019-05-11T03:28:57.931Z,25.63
2019-05-11T03:31:30.527Z,28.07
2019-05-11T03:34:03.106Z,29.37
2019-05-11T03:36:35.846Z,32.57
2019-05-11T03:39:08.421Z,30.23
2019-05-11T03:41:41.992Z,29.30
2019-05-11T03:44:14.694Z,32.27
2019-05-11T03:46:47.191Z,36.13
2019-05-11T03:49:19.767Z,30.63
2019-05-11T03:51:52.345Z,32.87
2019-05-11T03:54:24.971Z,32.73
2019-05-11T03:56:57.500Z,35.60
2019-05-11T03:59:30.151Z,32.53
2019-05-11T04:02:06.151Z,35.57
2019-05-11T04:04:38.790Z,35.77
2019-05-11T04:07:11.512Z,33.30
2019-05-11T04:09:44.948Z,37.27
2019-05-11T04:12:33.466Z,40.53
2019-05-11T04:15:07.586Z,38.37
2019-05-11T04:17:40.267Z,32.80
2019-05-11T04:20:12.991Z,34.00
2019-05-11T04:22:45.570Z,33.40
2019-05-11T04:25:18.286Z,34.50
2019-05-11T04:27:52.961Z,34.87
2019-05-11T04:30:25.731Z,38.50
2019-05-11T04:32:59.132Z,36.30
2019-05-11T04:35:35.085Z,35.40
2019-05-11T04:38:07.724Z,35.20
2019-05-11T04:40:40.360Z,32.03
2019-05-11T04:43:13.281Z,33.70
2019-05-11T04:45:46.419Z,39.43
2019-05-11T04:48:19.822Z,33.15
2019-05-11T04:50:53.262Z,29.53
2019-05-11T04:53:25.967Z,31.07
2019-05-11T04:55:58.688Z,29.33
2019-05-11T04:58:31.179Z,30.70
2019-05-11T05:01:03.854Z,26.87
2019-05-11T05:03:40.751Z,28.50
2019-05-11T05:06:22.767Z,28.67
2019-05-11T05:09:03.026Z,32.83
2019-05-11T05:11:38.308Z,31.52
2019-05-11T05:14:11.090Z,28.83
2019-05-11T05:16:43.867Z,29.10
2019-05-11T05:19:17.269Z,27.00
2019-05-11T05:21:49.844Z,25.83
2019-05-11T05:24:23.959Z,26.67
2019-05-11T05:26:56.658Z,25.27
2019-05-11T05:29:29.908Z,28.27
2019-05-11T05:32:02.645Z,24.37
2019-05-11T05:34:35.210Z,24.27
2019-05-11T05:37:08.889Z,23.80
2019-05-11T05:39:41.375Z,23.10
2019-05-11T05:42:14.181Z,24.27
2019-05-11T05:44:52.300Z,26.67
2019-05-11T05:47:24.935Z,27.40
2019-05-11T05:49:57.975Z,27.23
2019-05-11T05:52:30.595Z,23.27
2019-05-11T05:55:03.334Z,22.10
2019-05-11T05:57:37.013Z,20.23
2019-05-11T06:00:13.420Z,19.23
2019-05-11T06:02:47.236Z,19.03
2019-05-11T06:05:20.045Z,20.40
2019-05-11T06:07:53.235Z,19.40
2019-05-11T06:10:28.741Z,18.70
2019-05-11T06:13:02.215Z,17.60
2019-05-11T06:15:37.676Z,16.97
2019-05-11T06:18:10.384Z,18.30
2019-05-11T06:20:44.132Z,18.00
2019-05-11T06:23:16.694Z,17.47
2019-05-11T06:25:49.285Z,17.57
2019-05-11T06:28:21.845Z,17.90
2019-05-11T06:30:55.658Z,17.03
2019-05-11T06:33:28.420Z,18.00
2019-05-11T06:36:01.634Z,19.13
2019-05-11T06:38:34.186Z,17.60
2019-05-11T06:41:08.000Z,18.53
2019-05-11T06:43:40.769Z,17.23
2019-05-11T06:46:13.430Z,17.47
2019-05-11T06:48:46.151Z,16.87
2019-05-11T06:51:20.514Z,19.57
2019-05-11T06:53:53.167Z,16.57
2019-05-11T06:56:25.815Z,16.97
2019-05-11T06:58:59.134Z,17.00
2019-05-11T07:01:32.073Z,15.93
2019-05-11T07:04:04.721Z,14.80
2019-05-11T07:06:38.467Z,15.13
2019-05-11T07:09:13.129Z,14.63
2019-05-11T07:11:46.631Z,17.10
2019-05-11T07:14:21.441Z,17.20
2019-05-11T07:16:55.166Z,18.00
2019-05-11T07:19:29.988Z,15.37
2019-05-11T07:22:03.407Z,18.30
2019-05-11T07:24:36.042Z,17.47
2019-05-11T07:27:08.491Z,14.07
2019-05-11T07:29:42.667Z,13.70
2019-05-11T07:32:23.059Z,14.20
2019-05-11T07:34:59.421Z,14.23
2019-05-11T07:37:32.140Z,15.30
2019-05-11T07:40:05.180Z,14.70
2019-05-11T07:42:38.639Z,15.43
2019-05-11T07:45:14.931Z,16.57
2019-05-11T07:47:55.601Z,16.43
2019-05-11T07:50:32.079Z,17.63
2019-05-11T07:53:10.243Z,17.77
2019-05-11T07:55:45.310Z,18.77
2019-05-11T07:58:25.657Z,19.20
2019-05-11T08:00:58.363Z,20.67
2019-05-11T08:03:31.083Z,19.57
2019-05-11T08:06:08.910Z,21.00
2019-05-11T08:08:56.079Z,21.17
2019-05-11T08:11:32.399Z,21.17
2019-05-11T08:14:07.849Z,23.73
2019-05-11T08:16:42.168Z,24.67
2019-05-11T08:19:18.535Z,24.43
2019-05-11T08:21:58.273Z,25.27
2019-05-11T08:24:32.947Z,27.03
2019-05-11T08:27:08.226Z,26.50
2019-05-11T08:29:41.846Z,29.15
2019-05-11T08:32:15.375Z,28.20
2019-05-11T08:34:49.959Z,27.43
2019-05-11T08:37:22.587Z,27.03
2019-05-11T08:39:58.536Z,27.43
2019-05-11T08:42:34.822Z,29.00
2019-05-11T08:45:18.823Z,28.93
2019-05-11T08:47:57.916Z,30.87
2019-05-11T08:50:31.742Z,31.80
2019-05-11T08:53:04.372Z,43.58
2019-05-11T08:55:39.979Z,39.60
2019-05-11T08:58:12.781Z,44.23
2019-05-11T09:00:47.670Z,42.13
2019-05-11T09:03:22.575Z,44.07
2019-05-11T09:05:57.889Z,45.33
2019-05-11T09:08:38.850Z,54.72
2019-05-11T09:11:13.322Z,48.63
2019-05-11T09:13:49.104Z,46.73
2019-05-11T09:16:22.991Z,46.87
2019-05-11T09:18:58.104Z,52.22
2019-05-11T09:21:33.805Z,46.00
2019-05-11T09:24:08.871Z,45.20
2019-05-11T09:26:47.987Z,46.60
2019-05-11T09:29:20.730Z,43.53
2019-05-11T09:31:55.036Z,41.00
2019-05-11T09:34:28.859Z,40.33
2019-05-11T09:37:01.699Z,41.83
2019-05-11T09:39:34.268Z,39.97
2019-05-11T09:42:09.851Z,39.40
2019-05-11T09:44:43.440Z,36.47
2019-05-11T09:47:39.451Z,36.27
2019-05-11T09:50:28.407Z,41.28
2019-05-11T09:53:02.706Z,35.97
2019-05-11T09:55:40.632Z,33.23
2019-05-11T09:58:19.963Z,33.93
2019-05-11T10:00:58.606Z,34.97
2019-05-11T10:03:39.101Z,31.17
2019-05-11T10:06:20.256Z,28.63
2019-05-11T10:08:58.020Z,26.07
2019-05-11T10:11:31.357Z,25.23
2019-05-11T10:14:04.213Z,24.98
2019-05-11T10:16:38.615Z,22.27
2019-05-11T10:19:13.119Z,22.00
2019-05-11T10:21:48.561Z,21.67
2019-05-11T10:24:23.864Z,22.07
2019-05-11T10:26:57.830Z,21.75
2019-05-11T10:29:33.969Z,19.30
2019-05-11T10:32:09.703Z,18.60
2019-05-11T10:34:44.669Z,20.10
2019-05-11T10:37:18.821Z,17.23
2019-05-11T10:39:52.107Z,18.43
2019-05-11T10:42:38.781Z,17.27
2019-05-11T10:45:18.206Z,17.43
2019-05-11T10:47:57.258Z,17.42
2019-05-11T10:50:33.221Z,15.95
2019-05-11T10:53:10.445Z,13.33
2019-05-11T10:55:44.054Z,14.17
2019-05-11T10:58:18.456Z,14.80
2019-05-11T11:00:51.527Z,15.82
2019-05-11T11:03:25.194Z,15.90
2019-05-11T11:05:58.177Z,14.17
2019-05-11T11:08:33.285Z,15.53
2019-05-11T11:11:08.144Z,13.60
2019-05-11T11:13:41.674Z,12.73
2019-05-11T11:16:35.042Z,13.93
2019-05-11T11:19:09.473Z,13.37
2019-05-11T11:21:42.184Z,14.13
2019-05-11T11:24:17.978Z,14.40
2019-05-11T11:26:50.845Z,13.87
2019-05-11T11:29:24.272Z,14.40
2019-05-11T11:31:58.730Z,13.03
2019-05-11T11:34:31.626Z,13.38
2019-05-11T11:37:04.639Z,12.90
2019-05-11T11:39:38.854Z,12.80
2019-05-11T11:42:17.900Z,12.40
2019-05-11T11:44:51.597Z,14.02
2019-05-11T11:47:24.661Z,12.73
2019-05-11T11:50:00.525Z,12.87
2019-05-11T11:52:34.953Z,13.10
2019-05-11T11:55:08.506Z,15.20
2019-05-11T11:57:41.962Z,12.50
2019-05-11T12:00:20.296Z,12.40
2019-05-11T12:02:53.035Z,12.98
2019-05-11T12:05:28.306Z,15.50
2019-05-11T12:08:01.852Z,16.03
2019-05-11T12:10:37.934Z,13.50
2019-05-11T12:13:12.315Z,14.00
2019-05-11T12:15:45.050Z,12.97
2019-05-11T12:18:19.787Z,14.33
2019-05-11T12:20:58.567Z,15.17
2019-05-11T12:23:34.640Z,14.77
2019-05-11T12:26:09.378Z,11.87
2019-05-11T12:28:45.162Z,13.67
2019-05-11T12:31:21.503Z,13.23
2019-05-11T12:34:00.659Z,13.03
2019-05-11T12:36:35.099Z,15.00
2019-05-11T12:39:09.973Z,14.07
2019-05-11T12:41:43.607Z,12.97
2019-05-11T12:44:18.584Z,11.33
2019-05-11T12:46:53.293Z,14.60
2019-05-11T12:49:26.114Z,11.80
2019-05-11T12:52:00.133Z,12.13
2019-05-11T12:54:34.116Z,16.57
2019-05-11T12:57:07.957Z,12.73
2019-05-11T12:59:42.298Z,13.80
2019-05-11T13:02:18.281Z,13.00
2019-05-11T13:04:53.071Z,13.73
2019-05-11T13:07:28.281Z,13.00
2019-05-11T13:10:01.201Z,14.00
2019-05-11T13:12:34.339Z,12.97
2019-05-11T13:15:09.825Z,14.53
2019-05-11T13:17:48.832Z,13.50
2019-05-11T13:20:24.857Z,15.17
2019-05-11T13:22:58.736Z,13.30
2019-05-11T13:25:32.222Z,11.73
2019-05-11T13:28:08.543Z,12.77
2019-05-11T13:30:41.416Z,13.43
2019-05-11T13:33:14.034Z,10.60
2019-05-11T13:35:48.260Z,10.27
2019-05-11T13:38:21.065Z,11.48
2019-05-11T13:40:54.789Z,10.90
2019-05-11T13:43:28.473Z,9.10
2019-05-11T13:46:01.704Z,11.27
2019-05-11T13:48:34.410Z,11.13
2019-05-11T13:51:08.767Z,13.40
2019-05-11T13:53:42.475Z,10.13
2019-05-11T13:56:17.658Z,9.47
2019-05-11T13:58:51.690Z,8.00
2019-05-11T14:01:27.875Z,9.03
2019-05-11T14:04:04.631Z,9.27
2019-05-11T14:06:38.386Z,8.63
2019-05-11T14:09:11.146Z,8.37
2019-05-11T14:11:47.871Z,7.87
2019-05-11T14:14:21.411Z,8.07
2019-05-11T14:16:55.371Z,7.77
2019-05-11T14:19:29.229Z,7.60
2019-05-11T14:22:04.795Z,7.30
2019-05-11T14:24:37.789Z,8.47
2019-05-11T14:27:13.480Z,9.23
2019-05-11T14:29:52.013Z,8.70
2019-05-11T14:32:28.468Z,7.80
2019-05-11T14:35:01.307Z,9.07
2019-05-11T14:37:37.951Z,10.53
2019-05-11T14:40:11.614Z,7.20
2019-05-11T14:42:49.100Z,7.07
2019-05-11T14:45:22.569Z,7.40
2019-05-11T14:47:58.101Z,6.80
2019-05-11T14:50:34.354Z,5.70
2019-05-11T14:53:14.679Z,7.43
2019-05-11T14:55:48.804Z,7.90
2019-05-11T14:58:27.620Z,6.63
2019-05-11T15:01:01.841Z,6.30
2019-05-11T15:03:37.859Z,5.10
2019-05-11T15:06:14.627Z,10.17
2019-05-11T15:08:49.469Z,7.77
2019-05-11T15:11:23.749Z,7.70
2019-05-11T15:13:57.946Z,8.10
2019-05-11T15:16:30.962Z,7.15
2019-05-11T15:19:03.671Z,7.33
2019-05-11T15:21:38.742Z,7.57
2019-05-11T15:24:12.638Z,6.83
2019-05-11T15:26:48.768Z,6.93
2019-05-11T15:29:22.643Z,10.03
2019-05-11T15:31:57.865Z,7.53
2019-05-11T15:34:32.322Z,9.23
2019-05-11T15:37:13.864Z,6.07
2019-05-11T15:39:49.636Z,6.83
2019-05-11T15:42:24.922Z,7.80
2019-05-11T15:45:04.031Z,7.80
2019-05-11T15:48:08.248Z,8.33
2019-05-11T15:50:49.291Z,9.57
2019-05-11T15:53:22.238Z,7.93
2019-05-11T15:55:59.639Z,6.87
2019-05-11T15:58:41.452Z,8.97
2019-05-11T16:01:14.739Z,7.20
2019-05-11T16:03:49.982Z,7.15
2019-05-11T16:06:28.433Z,9.50
2019-05-11T16:09:08.017Z,7.97
2019-05-11T16:11:42.622Z,7.28
2019-05-11T16:14:16.246Z,7.77
2019-05-11T16:16:53.772Z,8.93
2019-05-11T16:19:30.509Z,8.73
2019-05-11T16:22:04.524Z,9.83
2019-05-11T16:24:39.808Z,8.17
2019-05-11T16:27:12.855Z,9.93
2019-05-11T16:29:48.221Z,9.40
2019-05-11T16:32:24.353Z,8.37
2019-05-11T16:34:57.639Z,9.47
2019-05-11T16:37:34.342Z,8.90
2019-05-11T16:40:08.885Z,13.30
2019-05-11T16:42:43.516Z,11.83
2019-05-11T16:45:31.563Z,10.93
2019-05-11T16:48:05.271Z,7.95
2019-05-11T16:50:39.107Z,9.40
2019-05-11T16:53:11.828Z,6.72
2019-05-11T16:55:48.352Z,8.40
2019-05-11T16:58:23.088Z,8.30
2019-05-11T17:00:58.183Z,8.07
2019-05-11T17:03:31.210Z,9.27
2019-05-11T17:06:04.210Z,7.17
2019-05-11T17:08:38.512Z,11.00
2019-05-11T17:11:12.810Z,7.10
2019-05-11T17:13:48.295Z,7.67
2019-05-11T17:16:25.436Z,6.87
2019-05-11T17:19:00.162Z,7.87
2019-05-11T17:21:33.885Z,5.43
2019-05-11T17:24:06.690Z,4.90
2019-05-11T17:26:42.440Z,9.83
2019-05-11T17:29:19.702Z,6.47
2019-05-11T17:31:57.814Z,6.47
2019-05-11T17:34:40.174Z,5.20
2019-05-11T17:37:14.303Z,8.80
2019-05-11T17:39:48.040Z,5.17
2019-05-11T17:42:22.872Z,4.77
2019-05-11T17:45:00.745Z,9.10
2019-05-11T17:47:35.380Z,5.13
2019-05-11T17:50:09.739Z,4.00
2019-05-11T17:52:47.754Z,4.87
2019-05-11T17:55:23.046Z,4.67
2019-05-11T17:57:58.183Z,7.40
2019-05-11T18:00:31.649Z,4.23
2019-05-11T18:03:10.197Z,4.83
2019-05-11T18:05:48.402Z,5.53
2019-05-11T18:08:30.954Z,4.63
2019-05-11T18:11:08.180Z,3.70
2019-05-11T18:13:42.353Z,3.53
2019-05-11T18:16:15.257Z,2.40
2019-05-11T18:18:48.652Z,3.93
2019-05-11T18:21:22.710Z,4.18
2019-05-11T18:23:56.267Z,3.57
2019-05-11T18:26:29.919Z,5.33
2019-05-11T18:29:03.188Z,3.97
2019-05-11T18:31:38.445Z,2.40
2019-05-11T18:34:14.548Z,4.90
2019-05-11T18:36:48.516Z,4.83
2019-05-11T18:39:23.189Z,3.97
2019-05-11T18:41:58.719Z,4.82
2019-05-11T18:44:32.600Z,3.93
2019-05-11T18:47:08.793Z,3.03
2019-05-11T18:49:41.718Z,5.77
2019-05-11T18:52:15.212Z,3.90
2019-05-11T18:54:48.937Z,3.33
2019-05-11T18:57:22.164Z,5.57
2019-05-11T18:59:54.825Z,4.37
2019-05-11T19:02:28.330Z,5.43
2019-05-11T19:05:01.217Z,7.00
2019-05-11T19:07:33.986Z,4.73
2019-05-11T19:10:11.937Z,5.33
2019-05-11T19:12:48.825Z,4.87
2019-05-11T19:15:21.834Z,4.33
2019-05-11T19:17:57.910Z,4.17
2019-05-11T19:20:44.492Z,4.37
2019-05-11T19:23:19.913Z,3.73
2019-05-11T19:25:54.900Z,4.27
2019-05-11T19:28:28.239Z,5.18
2019-05-11T19:31:01.790Z,4.37
2019-05-11T19:33:38.218Z,4.47
2019-05-11T19:36:11.184Z,3.43
2019-05-11T19:38:44.187Z,5.20
2019-05-11T19:41:18.552Z,3.93
2019-05-11T19:43:53.464Z,3.60
2019-05-11T19:46:28.050Z,4.53
2019-05-11T19:49:01.676Z,4.53
2019-05-11T19:51:43.255Z,6.43
2019-05-11T19:54:18.410Z,5.50
2019-05-11T19:56:55.074Z,2.33
2019-05-11T19:59:29.437Z,5.20
2019-05-11T20:02:04.936Z,4.12
2019-05-11T20:04:38.737Z,3.77
2019-05-11T20:07:18.323Z,6.80
2019-05-11T20:09:52.305Z,3.13
2019-05-11T20:12:28.388Z,4.03
2019-05-11T20:15:04.923Z,6.33
2019-05-11T20:17:42.460Z,5.73
2019-05-11T20:20:18.066Z,5.03
2019-05-11T20:22:52.735Z,5.03
2019-05-11T20:25:28.757Z,3.67
2019-05-11T20:28:05.857Z,5.63
2019-05-11T20:30:53.331Z,4.10
2019-05-11T20:33:27.928Z,3.53
2019-05-11T20:36:02.274Z,4.63
2019-05-11T20:38:38.415Z,7.00
2019-05-11T20:41:12.779Z,4.43
2019-05-11T20:43:49.011Z,4.90
2019-05-11T20:46:22.674Z,3.33
2019-05-11T20:48:57.939Z,4.77
2019-05-11T20:51:36.595Z,5.50
2019-05-11T20:54:17.538Z,3.97
2019-05-11T20:56:53.547Z,4.60
2019-05-11T20:59:28.738Z,4.73
2019-05-11T21:02:02.277Z,5.30
2019-05-11T21:04:35.126Z,5.60
2019-05-11T21:07:09.170Z,7.70
2019-05-11T21:09:44.457Z,6.63
2019-05-11T21:12:19.362Z,5.17
2019-05-11T21:14:57.894Z,3.77
2019-05-11T21:17:33.052Z,11.40
2019-05-11T21:20:11.115Z,5.97
2019-05-11T21:22:45.777Z,7.07
2019-05-11T21:25:21.712Z,4.10
2019-05-11T21:27:57.901Z,5.57
2019-05-11T21:30:32.058Z,5.62
2019-05-11T21:33:05.438Z,5.10
2019-05-11T21:35:39.689Z,3.17
2019-05-11T21:38:14.070Z,6.00
2019-05-11T21:40:48.558Z,6.93
2019-05-11T21:43:22.324Z,7.17
2019-05-11T21:45:55.001Z,10.27
2019-05-11T21:48:28.991Z,4.63
2019-05-11T21:51:05.774Z,5.50
2019-05-11T21:53:39.430Z,4.03
2019-05-11T21:56:12.158Z,4.50
2019-05-11T21:58:44.726Z,5.17
2019-05-11T22:01:20.147Z,6.33
2019-05-11T22:03:53.347Z,5.67
2019-05-11T22:06:30.167Z,5.73
2019-05-11T22:09:08.145Z,4.32
2019-05-11T22:11:41.784Z,5.07
2019-05-11T22:14:15.269Z,4.37
2019-05-11T22:16:51.638Z,4.53
2019-05-11T22:19:25.365Z,5.50
2019-05-11T22:21:59.977Z,5.80
2019-05-11T22:24:35.867Z,7.80
2019-05-11T22:27:09.057Z,6.47
2019-05-11T22:29:41.876Z,5.20
2019-05-11T22:32:21.542Z,6.23
2019-05-11T22:34:54.768Z,7.83
2019-05-11T22:37:29.562Z,5.10
2019-05-11T22:40:02.255Z,6.03
2019-05-11T22:42:35.026Z,6.13
2019-05-11T22:45:08.995Z,2.87
2019-05-11T22:47:42.826Z,5.87
2019-05-11T22:50:18.351Z,4.97
2019-05-11T22:52:51.837Z,5.97
2019-05-11T22:55:27.807Z,4.83
2019-05-11T22:58:01.291Z,6.70
2019-05-11T23:00:42.759Z,5.00
2019-05-11T23:03:15.499Z,6.43
2019-05-11T23:05:48.854Z,7.10
2019-05-11T23:08:22.450Z,6.63
2019-05-11T23:10:56.322Z,6.50
2019-05-11T23:13:29.008Z,4.30
2019-05-11T23:16:01.703Z,4.20
2019-05-11T23:18:34.404Z,3.70
2019-05-11T23:21:08.740Z,4.33
2019-05-11T23:23:41.401Z,6.73
2019-05-11T23:26:14.178Z,5.07
2019-05-11T23:28:48.729Z,6.40
2019-05-11T23:31:23.268Z,5.30
2019-05-11T23:33:57.824Z,5.28
2019-05-11T23:36:32.580Z,7.30
2019-05-11T23:39:09.134Z,7.00
2019-05-11T23:41:42.402Z,5.13
2019-05-11T23:44:18.025Z,5.18
2019-05-11T23:46:55.050Z,6.37
2019-05-11T23:49:27.676Z,4.83
2019-05-11T23:52:01.395Z,5.13
2019-05-11T23:54:35.271Z,4.93
2019-05-11T23:57:10.141Z,4.63
2019-05-11T23:59:42.899Z,6.30
